Time;durP1;ratioP1;P1;durP2;ratioP2;P2;SDS_P1;SDS_P2;PMS_P1;PMS_P2;Temp;Humidity;BMP_temperature;BMP_pressure;BME280_temperature;BME280_humidity;BME280_pressure;Samples;Min_cycle;Max_cycle;Signal;HPM_P1;HPM_P2
2024/04/01 00:02:05;;;;;;;13.90;5.80;;;;;;;10.88;100.00;99206.25;5054796;28;20473;-69
2024/04/01 00:04:31;;;;;;;18.33;5.20;;;;;;;10.70;100.00;99192.88;5054500;28;20208;-69
2024/04/01 00:06:58;;;;;;;9.60;5.30;;;;;;;10.69;100.00;99187.81;5054569;28;21026;-69
2024/04/01 00:09:23;;;;;;;7.30;5.80;;;;;;;10.70;100.00;99186.69;5053479;28;20649;-69
2024/04/01 00:11:50;;;;;;;21.40;6.20;;;;;;;10.66;100.00;99193.91;5054035;28;20511;-69
2024/04/01 00:14:17;;;;;;;8.03;5.03;;;;;;;10.66;100.00;99196.59;5054064;28;20228;-69
2024/04/01 00:16:43;;;;;;;8.47;5.20;;;;;;;10.60;100.00;99190.63;5054686;28;20445;-70
2024/04/01 00:19:09;;;;;;;6.80;4.80;;;;;;;10.49;100.00;99186.75;5054469;28;20485;-69
2024/04/01 00:21:36;;;;;;;8.77;4.80;;;;;;;10.51;100.00;99179.09;5053947;28;20470;-69
2024/04/01 00:24:01;;;;;;;9.10;5.13;;;;;;;10.44;100.00;99162.59;5053200;28;20245;-69
2024/04/01 00:26:28;;;;;;;9.87;5.57;;;;;;;10.46;100.00;99160.38;5053742;28;20837;-69
2024/04/01 00:28:54;;;;;;;10.10;6.10;;;;;;;10.49;100.00;99175.91;5053696;28;20257;-69
2024/04/01 00:31:29;;;;;;;9.30;4.80;;;;;;;10.44;100.00;99166.09;5053668;28;20536;-69
2024/04/01 00:33:54;;;;;;;12.60;5.47;;;;;;;10.50;100.00;99151.25;5053029;28;20250;-70
2024/04/01 00:36:21;;;;;;;7.03;4.17;;;;;;;10.47;100.00;99137.56;5053585;28;20435;-72
2024/04/01 00:38:47;;;;;;;10.40;5.10;;;;;;;10.49;100.00;99136.13;5053650;28;20208;-69
2024/04/01 00:41:13;;;;;;;10.13;5.13;;;;;;;10.46;100.00;99130.59;5053600;28;20446;-69
2024/04/01 00:43:39;;;;;;;5.80;4.13;;;;;;;10.51;100.00;99128.44;5053806;28;20255;-69
2024/04/01 00:46:06;;;;;;;7.77;5.03;;;;;;;10.48;100.00;99120.19;5053644;28;20517;-69
2024/04/01 00:48:33;;;;;;;12.90;5.80;;;;;;;10.47;100.00;99111.28;5053625;28;20207;-69
2024/04/01 00:51:00;;;;;;;6.60;4.10;;;;;;;10.44;100.00;99100.34;5053778;28;20442;-69
2024/04/01 00:53:26;;;;;;;11.73;6.00;;;;;;;10.48;100.00;99101.25;5053308;28;22041;-69
2024/04/01 00:55:54;;;;;;;9.73;5.67;;;;;;;10.41;100.00;99109.16;5052989;28;20609;-69
2024/04/01 00:58:20;;;;;;;14.03;5.00;;;;;;;10.43;100.00;99090.66;5053427;28;20756;-69
2024/04/01 01:00:49;;;;;;;10.07;5.20;;;;;;;10.48;100.00;99098.53;5053800;28;20450;-69
2024/04/01 01:03:15;;;;;;;9.03;5.20;;;;;;;10.43;100.00;99098.78;5053588;28;20557;-69
2024/04/01 01:05:44;;;;;;;16.13;5.10;;;;;;;10.48;100.00;99101.25;5054053;28;20482;-69
2024/04/01 01:08:11;;;;;;;9.63;4.60;;;;;;;10.52;100.00;99115.69;5053582;28;20492;-69
2024/04/01 01:10:38;;;;;;;8.10;5.80;;;;;;;10.57;100.00;99118.19;5053151;28;20776;-69
2024/04/01 01:13:04;;;;;;;9.10;5.17;;;;;;;10.57;100.00;99118.19;5052770;28;20868;-69
2024/04/01 01:15:31;;;;;;;11.00;5.70;;;;;;;10.53;100.00;99128.09;5053000;28;20470;-69
2024/04/01 01:17:56;;;;;;;9.30;4.93;;;;;;;10.46;100.00;99133.28;5052738;28;20287;-69
2024/04/01 01:20:23;;;;;;;10.33;5.83;;;;;;;10.45;100.00;99129.00;5052892;28;20529;-69
2024/04/01 01:22:51;;;;;;;10.47;6.00;;;;;;;10.43;100.00;99129.34;5053870;28;20224;-69
2024/04/01 01:25:17;;;;;;;11.13;5.20;;;;;;;10.43;100.00;99118.50;5052665;28;20474;-69
2024/04/01 01:27:43;;;;;;;9.60;5.33;;;;;;;10.42;100.00;99119.63;5052796;28;20460;-69
2024/04/01 01:30:15;;;;;;;9.17;5.60;;;;;;;10.43;100.00;99123.13;5052605;28;20817;-69
2024/04/01 01:32:45;;;;;;;13.03;5.30;;;;;;;10.38;100.00;99115.22;5053272;28;20228;-69
2024/04/01 01:35:12;;;;;;;15.87;4.90;;;;;;;10.42;100.00;99119.63;5052936;28;20814;-69
2024/04/01 01:37:38;;;;;;;7.37;4.73;;;;;;;10.36;100.00;99121.00;5050995;28;20549;-69
2024/04/01 01:40:08;;;;;;;6.80;3.80;;;;;;;10.37;100.00;99121.78;5051413;28;20532;-70
2024/04/01 01:42:34;;;;;;;13.00;4.93;;;;;;;10.26;100.00;99114.06;5052160;28;21087;-70
2024/04/01 01:45:00;;;;;;;9.50;5.23;;;;;;;10.32;100.00;99109.25;5052603;28;20470;-70
2024/04/01 01:47:26;;;;;;;9.50;5.30;;;;;;;10.32;100.00;99111.97;5051868;28;20469;-69
2024/04/01 01:49:53;;;;;;;12.60;6.43;;;;;;;10.28;100.00;99111.03;5056205;28;20849;-69
2024/04/01 01:52:18;;;;;;;7.93;4.50;;;;;;;10.27;100.00;99095.91;5055507;28;20227;-69
2024/04/01 01:54:45;;;;;;;8.97;4.37;;;;;;;10.22;100.00;99091.47;5056248;28;20547;-69
2024/04/01 01:57:12;;;;;;;12.43;5.17;;;;;;;10.20;100.00;99084.84;5055594;28;20289;-69
2024/04/01 01:59:38;;;;;;;8.50;5.63;;;;;;;10.17;100.00;99085.50;5047885;28;20455;-69
2024/04/01 02:02:04;;;;;;;12.10;5.43;;;;;;;10.21;100.00;99089.91;5056643;28;20805;-69
2024/04/01 02:04:30;;;;;;;7.10;4.50;;;;;;;10.24;100.00;99085.75;5056880;28;20528;-69
2024/04/01 02:06:56;;;;;;;9.03;5.43;;;;;;;10.27;100.00;99088.59;5056106;28;20316;-69
2024/04/01 02:09:23;;;;;;;8.10;4.97;;;;;;;10.27;100.00;99094.03;5053875;28;20557;-70
2024/04/01 02:11:48;;;;;;;10.00;6.33;;;;;;;10.29;100.00;99096.38;5055208;28;20204;-70
2024/04/01 02:14:16;;;;;;;7.87;5.23;;;;;;;10.34;100.00;99088.81;5056608;28;21042;-70
2024/04/01 02:16:42;;;;;;;14.67;5.13;;;;;;;10.35;100.00;99098.53;5056439;28;20283;-70
2024/04/01 02:19:08;;;;;;;8.43;5.70;;;;;;;10.38;100.00;99099.78;5055414;28;20878;-70
2024/04/01 02:21:34;;;;;;;7.70;4.53;;;;;;;10.42;100.00;99089.06;5046078;28;20200;-70
2024/04/01 02:24:01;;;;;;;9.13;4.03;;;;;;;10.42;100.00;99078.25;5053537;28;20488;-70
2024/04/01 02:26:27;;;;;;;13.57;6.40;;;;;;;10.41;100.00;99084.78;5055490;28;20266;-69
2024/04/01 02:28:53;;;;;;;12.90;5.50;;;;;;;10.45;100.00;99085.69;5055786;28;20493;-69
2024/04/01 02:31:20;;;;;;;9.70;5.37;;;;;;;10.44;100.00;99078.69;5054032;28;20224;-69
2024/04/01 02:33:47;;;;;;;13.47;7.47;;;;;;;10.43;100.00;99088.72;5055556;28;20488;-69
2024/04/01 02:36:13;;;;;;;18.10;6.90;;;;;;;10.45;100.00;99085.69;5055471;28;20489;-69
2024/04/01 02:38:39;;;;;;;9.37;6.43;;;;;;;10.51;100.00;99085.13;5055542;28;20489;-69
2024/04/01 02:41:05;;;;;;;8.57;5.20;;;;;;;10.51;100.00;99084.34;5054237;28;20203;-69
2024/04/01 02:43:32;;;;;;;11.37;6.30;;;;;;;10.50;100.00;99080.06;5054920;28;20532;-69
2024/04/01 02:45:57;;;;;;;26.57;6.30;;;;;;;10.52;100.00;99075.09;5056149;28;20486;-69
2024/04/01 02:48:25;;;;;;;12.60;5.67;;;;;;;10.50;100.00;99077.34;5055149;28;20454;-69
2024/04/01 02:50:51;;;;;;;15.57;6.97;;;;;;;10.48;100.00;99074.19;5056082;28;20202;-69
2024/04/01 02:53:18;;;;;;;6.40;4.20;;;;;;;10.51;100.00;99073.50;5053606;28;20895;-69
2024/04/01 02:55:43;;;;;;;8.43;4.57;;;;;;;10.50;100.00;99078.16;5053453;28;20300;-69
2024/04/01 02:58:10;;;;;;;8.50;5.07;;;;;;;10.50;100.00;99074.66;5054610;28;20957;-69
2024/04/01 03:00:35;;;;;;;7.87;4.03;;;;;;;10.47;100.00;99073.41;5053681;28;20235;-69
2024/04/01 03:03:03;;;;;;;8.97;5.30;;;;;;;10.45;100.00;99075.66;5053857;28;20512;-69
2024/04/01 03:05:30;;;;;;;13.10;5.60;;;;;;;10.49;100.00;99079.28;5055029;28;20733;-69
2024/04/01 03:07:58;;;;;;;9.93;3.40;;;;;;;10.49;100.00;99082.00;5054627;28;20458;-69
2024/04/01 03:10:24;;;;;;;9.20;4.00;;;;;;;10.49;100.00;99078.47;5054118;28;20467;-69
2024/04/01 03:12:50;;;;;;;7.10;5.30;;;;;;;10.48;100.00;99076.88;5044208;28;21020;-69
2024/04/01 03:15:17;;;;;;;12.33;5.90;;;;;;;10.50;100.00;99075.44;5054255;28;20533;-69
2024/04/01 03:17:43;;;;;;;9.10;5.57;;;;;;;10.42;100.00;99072.84;5053931;28;20837;-69
2024/04/01 03:20:12;;;;;;;10.67;5.70;;;;;;;10.47;100.00;99072.59;5054703;28;20450;-69
2024/04/01 03:22:40;;;;;;;9.87;5.90;;;;;;;10.46;100.00;99071.81;5054778;28;20264;-69
2024/04/01 03:25:07;;;;;;;9.83;5.37;;;;;;;10.44;100.00;99059.75;5043597;28;20446;-69
2024/04/01 03:27:33;;;;;;;11.27;5.77;;;;;;;10.40;100.00;99054.22;5053469;28;20486;-69
2024/04/01 03:29:59;;;;;;;7.57;4.77;;;;;;;10.38;100.00;99052.97;5054409;28;20482;-69
2024/04/01 03:32:25;;;;;;;9.60;4.60;;;;;;;10.34;100.00;99058.28;5054700;28;20314;-69
2024/04/01 03:34:52;;;;;;;8.80;4.90;;;;;;;10.37;100.00;99046.78;5053827;28;20541;-69
2024/04/01 03:37:18;;;;;;;10.50;6.20;;;;;;;10.38;100.00;99051.06;5053625;28;20200;-69
2024/04/01 03:39:47;;;;;;;9.93;6.27;;;;;;;10.33;100.00;99043.16;5051790;28;20820;-69
2024/04/01 03:42:14;;;;;;;8.60;5.03;;;;;;;10.33;100.00;99043.94;5054773;28;20473;-70
2024/04/01 03:44:40;;;;;;;7.07;4.43;;;;;;;10.33;100.00;99038.53;5053931;28;20702;-70
2024/04/01 03:47:07;;;;;;;9.63;4.97;;;;;;;10.30;100.00;99039.19;5054298;28;20473;-70
2024/04/01 03:49:33;;;;;;;13.00;7.00;;;;;;;10.32;100.00;99033.47;5053901;28;20465;-69
2024/04/01 03:51:59;;;;;;;12.27;5.70;;;;;;;10.37;100.00;99019.72;5054506;28;20524;-69
2024/04/01 03:54:25;;;;;;;9.20;5.57;;;;;;;10.37;100.00;99011.59;5052058;28;20719;-69
2024/04/01 03:56:53;;;;;;;11.10;5.70;;;;;;;10.39;100.00;99000.41;5052080;28;20533;-69
2024/04/01 03:59:19;;;;;;;7.87;5.40;;;;;;;10.41;100.00;98995.47;5052317;28;20200;-69
2024/04/01 04:01:45;;;;;;;12.17;5.23;;;;;;;10.41;100.00;98990.06;5054142;28;20464;-69
2024/04/01 04:04:11;;;;;;;10.47;6.23;;;;;;;10.43;100.00;98987.78;5054119;28;20318;-69
2024/04/01 04:06:38;;;;;;;8.57;4.93;;;;;;;10.43;100.00;98982.38;5053570;28;20494;-69
2024/04/01 04:09:04;;;;;;;14.23;7.43;;;;;;;10.46;100.00;98976.28;5054027;28;20466;-69
2024/04/01 04:11:31;;;;;;;7.93;4.13;;;;;;;10.52;100.00;98973.00;5049764;28;20826;-69
2024/04/01 04:14:05;;;;;;;7.60;4.60;;;;;;;10.51;100.00;98966.03;5054149;28;20224;-69
2024/04/01 04:16:32;;;;;;;8.60;4.10;;;;;;;10.56;100.00;98965.00;5053439;28;20457;-70
2024/04/01 04:18:57;;;;;;;14.03;5.00;;;;;;;10.60;100.00;98971.31;5054018;28;20466;-69
2024/04/01 04:21:24;;;;;;;9.93;5.77;;;;;;;10.59;100.00;98961.63;5051255;28;20498;-69
2024/04/01 04:23:49;;;;;;;8.20;5.23;;;;;;;10.62;100.00;98958.22;5054217;28;20258;-69
2024/04/01 04:26:16;;;;;;;8.83;5.30;;;;;;;10.63;100.00;98948.97;5053054;28;20506;-70
2024/04/01 04:28:42;;;;;;;17.60;5.90;;;;;;;10.63;100.00;98954.38;5044027;28;20240;-69
2024/04/01 04:31:10;;;;;;;6.57;3.90;;;;;;;10.64;100.00;98955.97;5051788;28;20544;-69
2024/04/01 04:33:36;;;;;;;6.93;3.47;;;;;;;10.66;100.00;98958.31;5053708;28;20892;-69
2024/04/01 04:36:03;;;;;;;4.23;2.20;;;;;;;10.69;100.00;98960.34;5051850;28;20446;-69
2024/04/01 04:38:29;;;;;;;5.87;3.30;;;;;;;10.64;100.00;98958.66;5053694;28;20203;-69
2024/04/01 04:40:56;;;;;;;3.87;1.80;;;;;;;10.61;100.00;98959.34;5053663;28;20454;-69
2024/04/01 04:43:21;;;;;;;4.10;1.87;;;;;;;10.61;100.00;98964.75;5052075;28;20251;-69
2024/04/01 04:45:48;;;;;;;4.37;2.73;;;;;;;10.59;100.00;98962.41;5053767;28;20473;-69
2024/04/01 04:48:16;;;;;;;5.40;3.17;;;;;;;10.56;100.00;98968.50;5052908;28;20199;-69
2024/04/01 04:50:42;;;;;;;4.60;2.10;;;;;;;10.54;100.00;98969.97;5053198;28;20484;-69
2024/04/01 04:53:08;;;;;;;4.00;2.40;;;;;;;10.56;100.00;98973.13;5052104;28;20570;-70
2024/04/01 04:55:34;;;;;;;3.13;1.40;;;;;;;10.53;100.00;98974.56;5053233;28;20537;-69
2024/04/01 04:58:00;;;;;;;5.37;2.60;;;;;;;10.57;100.00;98977.41;5051101;28;20567;-70
2024/04/01 05:00:27;;;;;;;10.63;3.87;;;;;;;10.57;100.00;98977.41;5045717;28;20538;-71
2024/04/01 05:02:52;;;;;;;3.90;2.03;;;;;;;10.58;100.00;98976.25;5043667;28;20319;-69
2024/04/01 05:05:20;;;;;;;3.90;2.27;;;;;;;10.61;100.00;98973.66;5053206;28;20533;-71
2024/04/01 05:07:47;;;;;;;4.30;2.93;;;;;;;10.63;100.00;98978.75;5053678;28;20255;-70
2024/04/01 05:10:14;;;;;;;18.47;4.57;;;;;;;10.64;100.00;98972.22;5051752;28;20442;-70
2024/04/01 05:12:39;;;;;;;3.80;2.70;;;;;;;10.73;100.00;98964.75;5052578;28;20478;-70
2024/04/01 05:15:07;;;;;;;4.83;3.30;;;;;;;10.77;100.00;98952.09;5051513;28;20531;-70
2024/04/01 05:17:32;;;;;;;3.47;2.37;;;;;;;10.78;100.00;98950.97;5053186;28;20227;-70
2024/04/01 05:19:59;;;;;;;4.73;2.80;;;;;;;10.83;100.00;98953.44;5051788;28;20990;-70
2024/04/01 05:22:27;;;;;;;6.03;4.20;;;;;;;10.86;100.00;98958.16;5054166;28;20223;-71
2024/04/01 05:24:53;;;;;;;9.97;4.37;;;;;;;10.92;100.00;98949.78;5058384;28;20453;-69
2024/04/01 05:27:20;;;;;;;38.70;3.17;;;;;;;10.93;100.00;98940.53;5058592;28;20564;-71
2024/04/01 05:29:46;;;;;;;3.90;2.03;;;;;;;10.96;100.00;98935.22;5059431;28;20906;-71
2024/04/01 05:32:13;;;;;;;3.03;1.23;;;;;;;10.99;100.00;98928.34;5059016;28;20449;-70
2024/04/01 05:34:39;;;;;;;5.50;3.17;;;;;;;10.99;100.00;98922.91;5058476;28;20512;-70
2024/04/01 05:37:06;;;;;;;7.53;4.40;;;;;;;10.98;100.00;98919.44;5060180;28;20438;-71
2024/04/01 05:39:33;;;;;;;4.20;2.23;;;;;;;11.05;100.00;98919.59;5059470;28;20210;-70
2024/04/01 05:42:00;;;;;;;4.20;2.43;;;;;;;11.08;100.00;98907.31;5056923;28;20458;-71
2024/04/01 05:44:25;;;;;;;6.57;4.10;;;;;;;11.14;100.00;98908.63;5058908;28;20464;-71
2024/04/01 05:46:52;;;;;;;5.17;2.20;;;;;;;11.16;100.00;98914.50;5059169;28;20477;-71
2024/04/01 05:49:18;;;;;;;3.80;1.67;;;;;;;11.19;100.00;98907.59;5059463;28;20204;-70
2024/04/01 05:51:44;;;;;;;4.73;2.60;;;;;;;11.21;100.00;98913.47;5056745;28;20454;-70
2024/04/01 05:54:10;;;;;;;3.50;1.77;;;;;;;11.21;100.00;98921.59;5059138;28;20255;-70
2024/04/01 05:56:38;;;;;;;3.70;2.30;;;;;;;11.16;100.00;98909.06;5059264;28;20474;-70
2024/04/01 05:59:04;;;;;;;4.37;1.97;;;;;;;11.13;100.00;98917.88;5058322;28;20482;-70
2024/04/01 06:01:30;;;;;;;5.00;2.27;;;;;;;11.16;100.00;98911.78;5054069;28;20512;-70
2024/04/01 06:03:56;;;;;;;5.93;1.67;;;;;;;11.22;100.00;98926.66;5054062;28;20226;-70
2024/04/01 06:06:23;;;;;;;4.87;1.63;;;;;;;11.28;100.00;98921.75;5053062;28;20482;-70
2024/04/01 06:08:49;;;;;;;14.67;2.80;;;;;;;11.39;100.00;98922.06;5058870;28;20239;-70
2024/04/01 06:11:16;;;;;;;3.87;1.70;;;;;;;11.49;100.00;98924.25;5050713;28;20967;-70
2024/04/01 06:13:44;;;;;;;6.97;1.90;;;;;;;11.62;100.00;98936.59;5058428;28;20564;-70
2024/04/01 06:16:11;;;;;;;4.80;2.17;;;;;;;11.73;100.00;98929.53;5056963;28;20446;-70
2024/04/01 06:18:37;;;;;;;8.33;2.90;;;;;;;11.81;100.00;98922.34;5058532;28;20544;-70
2024/04/01 06:21:04;;;;;;;8.27;4.60;;;;;;;11.92;100.00;98925.38;5057792;28;20895;-70
2024/04/01 06:23:29;;;;;;;6.67;2.70;;;;;;;11.99;100.00;98925.53;5055292;28;20227;-70
2024/04/01 06:25:56;;;;;;;64.53;29.60;;;;;;;12.11;100.00;98922.72;5059646;28;20499;-70
2024/04/01 06:28:22;;;;;;;8.43;4.07;;;;;;;12.21;100.00;98908.59;5058866;28;20215;-70
2024/04/01 06:30:50;;;;;;;9.23;4.10;;;;;;;12.32;100.00;98904.22;5059030;28;20472;-70
2024/04/01 06:33:16;;;;;;;7.43;3.90;;;;;;;12.37;100.00;98903.94;5059017;28;20306;-70
2024/04/01 06:35:42;;;;;;;9.47;4.10;;;;;;;12.46;100.00;98898.31;5048071;28;20530;-70
2024/04/01 06:38:08;;;;;;;10.90;4.33;;;;;;;12.54;100.00;98907.41;5042291;28;20232;-70
2024/04/01 06:40:35;;;;;;;8.50;3.87;;;;;;;12.65;100.00;98905.69;5056179;28;20933;-69
2024/04/01 06:43:01;;;;;;;6.13;2.80;;;;;;;12.77;100.00;98897.41;5055519;28;20873;-68
2024/04/01 06:45:27;;;;;;;7.27;3.00;;;;;;;12.86;100.00;98891.75;5054999;28;20527;-71
2024/04/01 06:47:54;;;;;;;11.03;3.67;;;;;;;12.85;100.00;98890.97;5055467;28;20254;-68
2024/04/01 06:50:21;;;;;;;11.63;3.37;;;;;;;12.90;100.00;98883.69;5051919;28;20445;-68
2024/04/01 06:52:47;;;;;;;7.40;2.73;;;;;;;12.87;100.00;98875.09;5035865;28;20454;-68
2024/04/01 06:55:13;;;;;;;9.03;2.67;;;;;;;12.88;100.00;98868.53;5045312;28;20525;-68
2024/04/01 06:57:40;;;;;;;23.97;4.00;;;;;;;12.93;100.00;98875.59;5055660;28;20195;-68
2024/04/01 07:00:08;;;;;;;10.40;5.50;;;;;;;12.96;100.00;98879.53;5055309;28;20438;-68
2024/04/01 07:02:34;;;;;;;12.80;4.10;;;;;;;12.98;100.00;98878.03;5055711;28;20498;-68
2024/04/01 07:05:02;;;;;;;9.70;4.50;;;;;;;12.96;100.00;98876.81;5055162;28;20473;-68
2024/04/01 07:07:28;;;;;;;8.47;3.70;;;;;;;13.02;100.00;98878.88;5050526;28;20303;-68
2024/04/01 07:09:55;;;;;;;11.10;2.93;;;;;;;13.12;100.00;98875.59;5055304;28;20537;-69
2024/04/01 07:12:21;;;;;;;7.67;3.07;;;;;;;13.24;100.00;98873.88;5035899;28;20224;-68
2024/04/01 07:14:47;;;;;;;7.53;3.83;;;;;;;13.28;100.00;98880.97;5044395;28;20892;-68
2024/04/01 07:17:13;;;;;;;6.50;3.70;;;;;;;13.38;100.00;98887.75;5055259;28;20234;-68
2024/04/01 07:19:40;;;;;;;7.33;3.17;;;;;;;13.48;100.00;98887.13;5054671;28;20445;-68
2024/04/01 07:22:08;;;;;;;11.40;4.47;;;;;;;13.53;100.00;98886.03;5054619;28;20856;-68
2024/04/01 07:24:34;;;;;;;11.23;3.50;;;;;;;13.63;100.00;98899.03;5055350;28;20449;-68
2024/04/01 07:27:00;;;;;;;6.23;3.00;;;;;;;13.77;100.00;98902.00;5055048;28;20485;-68
2024/04/01 07:29:27;;;;;;;11.70;3.60;;;;;;;13.94;100.00;98910.81;5054603;28;20549;-68
2024/04/01 07:31:52;;;;;;;9.07;4.37;;;;;;;14.04;100.00;98902.06;5055135;28;20503;-68
2024/04/01 07:34:19;;;;;;;12.20;3.77;;;;;;;14.12;100.00;98884.66;5054893;28;20983;-68
2024/04/01 07:36:45;;;;;;;13.63;4.20;;;;;;;14.19;99.94;98879.31;5055023;28;20196;-68
2024/04/01 07:39:13;;;;;;;9.20;2.70;;;;;;;14.25;99.59;98877.84;5055087;28;20545;-68
2024/04/01 07:41:39;;;;;;;4.97;2.67;;;;;;;14.33;99.62;98882.25;5055106;28;20438;-68
2024/04/01 07:44:06;;;;;;;8.73;3.10;;;;;;;14.39;99.15;98888.19;5054570;28;21012;-68
2024/04/01 07:46:31;;;;;;;4.90;2.87;;;;;;;14.42;98.59;98879.25;5054041;28;20905;-68
2024/04/01 07:48:58;;;;;;;8.00;2.37;;;;;;;14.54;98.02;98870.88;5054666;28;20525;-68
2024/04/01 07:51:23;;;;;;;4.47;2.13;;;;;;;14.65;96.66;98854.66;5055444;28;20236;-68
2024/04/01 07:53:50;;;;;;;5.50;2.70;;;;;;;14.74;94.76;98852.47;5052448;28;20505;-68
2024/04/01 07:56:17;;;;;;;11.50;2.43;;;;;;;14.84;93.03;98849.06;5054527;28;20287;-68
2024/04/01 07:58:44;;;;;;;3.40;1.50;;;;;;;14.92;91.50;98854.56;5054379;28;20816;-68
2024/04/01 08:01:09;;;;;;;8.23;1.40;;;;;;;15.06;90.38;98843.84;5054694;28;20473;-68
2024/04/01 08:03:36;;;;;;;7.23;2.90;;;;;;;15.13;89.41;98841.19;5053878;28;20494;-68
2024/04/01 08:06:02;;;;;;;9.00;2.13;;;;;;;15.11;86.73;98857.16;5054842;28;20210;-68
2024/04/01 08:08:29;;;;;;;6.50;2.00;;;;;;;15.20;87.28;98859.56;5053925;28;20564;-68
2024/04/01 08:10:54;;;;;;;5.30;2.33;;;;;;;15.21;86.72;98859.19;5054512;28;20239;-68
2024/04/01 08:13:23;;;;;;;5.20;1.93;;;;;;;15.29;86.78;98851.88;5054318;28;20498;-68
2024/04/01 08:15:57;;;;;;;4.60;1.50;;;;;;;15.32;85.85;98846.44;5054689;28;20203;-68
2024/04/01 08:18:25;;;;;;;3.60;1.30;;;;;;;15.26;83.39;98852.59;5054437;28;20462;-68
2024/04/01 08:20:50;;;;;;;5.13;1.33;;;;;;;15.19;83.44;98847.88;5054103;28;20434;-68
2024/04/01 08:23:17;;;;;;;5.90;1.30;;;;;;;15.16;83.54;98853.28;5054203;28;21025;-68
2024/04/01 08:25:43;;;;;;;3.83;1.20;;;;;;;15.20;83.99;98841.25;5054068;28;20215;-68
2024/04/01 08:28:09;;;;;;;9.53;2.10;;;;;;;15.30;84.31;98818.75;5053402;28;20554;-68
2024/04/01 08:30:36;;;;;;;3.60;1.27;;;;;;;15.39;84.83;98813.75;5053405;28;20200;-68
2024/04/01 08:33:03;;;;;;;11.27;2.23;;;;;;;15.54;84.96;98802.97;5053860;28;20513;-68
2024/04/01 08:35:28;;;;;;;4.23;1.73;;;;;;;15.71;84.28;98807.00;5054030;28;20442;-68
2024/04/01 08:37:55;;;;;;;3.30;1.20;;;;;;;15.86;84.01;98806.75;5053821;28;20533;-68
2024/04/01 08:40:21;;;;;;;5.50;1.80;;;;;;;15.99;83.30;98793.56;5053138;28;20294;-68
2024/04/01 08:42:53;;;;;;;12.20;2.00;;;;;;;16.13;83.18;98784.66;5053995;28;20592;-68
2024/04/01 08:45:19;;;;;;;3.07;1.33;;;;;;;16.18;81.50;98776.09;5053994;28;20214;-73
2024/04/01 08:47:51;;;;;;;6.97;2.03;;;;;;;16.28;80.47;98769.91;5053920;28;21036;-70
2024/04/01 08:50:21;;;;;;;3.00;1.00;;;;;;;16.37;79.80;98784.00;5053378;28;20246;-70
2024/04/01 08:52:54;;;;;;;3.40;1.60;;;;;;;16.50;78.95;98791.84;5053997;28;20466;-69
2024/04/01 08:55:20;;;;;;;5.07;1.90;;;;;;;16.59;78.93;98789.53;5053787;28;20490;-69
2024/04/01 08:57:48;;;;;;;4.23;1.43;;;;;;;16.65;78.84;98793.50;5053091;28;20495;-70
2024/04/01 09:00:14;;;;;;;3.90;1.53;;;;;;;16.70;77.89;98795.06;5053290;28;20438;-72
2024/04/01 09:02:40;;;;;;;3.13;1.20;;;;;;;16.80;77.12;98795.13;5053681;28;20466;-73
2024/04/01 09:05:08;;;;;;;3.63;1.40;;;;;;;16.88;76.60;98804.91;5043167;28;20450;-73
2024/04/01 09:07:35;;;;;;;4.07;1.67;;;;;;;17.00;76.08;98816.63;5053100;28;20482;-73
2024/04/01 09:10:00;;;;;;;4.23;1.07;;;;;;;17.04;76.27;98814.69;5051628;28;20868;-73
2024/04/01 09:12:27;;;;;;;4.00;1.33;;;;;;;17.12;75.65;98805.34;5045905;28;20509;-73
2024/04/01 09:14:53;;;;;;;5.23;1.37;;;;;;;17.26;75.20;98794.41;5049429;28;20206;-73
2024/04/01 09:17:25;;;;;;;6.30;1.83;;;;;;;17.39;75.76;98789.31;5050099;28;20517;-74
2024/04/01 09:19:50;;;;;;;2.80;1.30;;;;;;;17.47;73.74;98788.16;5048859;28;20253;-73
2024/04/01 09:22:18;;;;;;;3.70;1.47;;;;;;;17.56;73.16;98787.75;5062793;28;20462;-73
2024/04/01 09:24:45;;;;;;;3.20;1.30;;;;;;;17.58;72.21;98788.94;5051827;28;20196;-73
2024/04/01 09:27:12;;;;;;;3.63;1.37;;;;;;;17.62;71.00;98805.38;5046699;28;20491;-73
2024/04/01 09:29:37;;;;;;;2.80;1.07;;;;;;;17.59;69.65;98798.72;5052917;28;20530;-73
2024/04/01 09:32:06;;;;;;;5.43;2.07;;;;;;;17.71;69.17;98794.81;5053303;28;20829;-73
2024/04/01 09:34:31;;;;;;;4.43;1.20;;;;;;;17.65;66.43;98785.41;5052847;28;20431;-73
2024/04/01 09:36:58;;;;;;;3.40;1.20;;;;;;;17.64;66.92;98783.84;5053001;28;21002;-73
2024/04/01 09:39:25;;;;;;;2.97;1.03;;;;;;;17.64;66.95;98770.16;5034173;28;20302;-73
2024/04/01 09:41:52;;;;;;;3.57;1.37;;;;;;;17.69;67.16;98761.53;5032923;28;20875;-73
2024/04/01 09:44:17;;;;;;;6.60;1.53;;;;;;;17.74;66.44;98766.66;5033295;28;20993;-73
2024/04/01 09:46:44;;;;;;;5.20;1.10;;;;;;;17.84;67.15;98757.66;5033193;28;20443;-73
2024/04/01 09:49:11;;;;;;;3.60;0.97;;;;;;;17.96;67.06;98752.91;5046575;28;20294;-74
2024/04/01 09:51:38;;;;;;;4.20;1.20;;;;;;;18.08;66.92;98736.06;5052647;28;20466;-73
2024/04/01 09:54:04;;;;;;;3.37;1.10;;;;;;;18.10;66.25;98725.47;5052636;28;20460;-74
2024/04/01 09:57:22;;;;;;;3.17;1.07;;;;;;;18.16;65.50;98710.19;5052913;28;20533;-73
2024/04/01 10:00:14;;;;;;;3.40;1.10;;;;;;;18.16;63.96;98710.19;5045394;28;20624;-74
2024/04/01 10:03:22;;;;;;;3.00;1.00;;;;;;;18.23;64.34;98698.41;5043052;28;20458;-73
2024/04/01 10:06:24;;;;;;;4.70;1.47;;;;;;;18.23;64.19;98677.25;5017447;28;20434;-73
2024/04/01 10:09:26;;;;;;;3.00;1.00;;;;;;;18.34;64.74;98686.22;5053225;28;20458;-73
2024/04/01 10:12:14;;;;;;;4.10;1.43;;;;;;;18.45;64.34;98690.84;5051035;28;20442;-73
2024/04/01 10:15:14;;;;;;;4.23;1.20;;;;;;;18.52;63.62;98699.81;5056973;28;20514;-73
2024/04/01 10:18:01;;;;;;;2.90;1.00;;;;;;;18.49;62.58;98697.09;5036824;28;20448;-73
2024/04/01 10:20:58;;;;;;;3.07;1.10;;;;;;;18.54;63.60;98699.41;5042383;28;20501;-73
2024/04/01 10:24:02;;;;;;;3.77;2.30;;;;;;;18.57;62.84;98685.69;5056727;28;20496;-74
2024/04/01 10:26:46;;;;;;;8.00;1.50;;;;;;;18.66;63.63;98675.03;5046759;28;20434;-73
2024/04/01 10:29:50;;;;;;;3.13;1.03;;;;;;;18.83;62.78;98680.84;5051929;28;20470;-74
2024/04/01 10:32:58;;;;;;;2.47;0.80;;;;;;;19.07;62.47;98671.63;5053357;28;20840;-73
2024/04/01 10:36:14;;;;;;;5.33;1.90;;;;;;;19.40;61.21;98686.63;5055486;28;20434;-73
2024/04/01 10:39:04;;;;;;;3.37;1.20;;;;;;;19.64;58.41;98684.84;5014914;28;20451;-74
2024/04/01 10:41:57;;;;;;;5.43;0.70;;;;;;;19.96;57.82;98689.19;5055201;28;20441;-74
2024/04/01 10:44:47;;;;;;;4.10;1.33;;;;;;;20.11;57.53;98681.56;5055640;28;20492;-74
2024/04/01 10:47:51;;;;;;;3.73;1.10;;;;;;;20.06;56.24;98680.06;5011131;28;20852;-74
2024/04/01 10:50:46;;;;;;;2.50;0.80;;;;;;;19.90;56.44;98661.38;5033114;28;20446;-74
2024/04/01 10:53:39;;;;;;;4.97;1.70;;;;;;;19.83;55.94;98674.44;5055088;28;20969;-74
2024/04/01 10:56:39;;;;;;;2.43;0.70;;;;;;;19.72;57.17;98676.53;5034360;28;20961;-73
2024/04/01 10:59:35;;;;;;;3.80;1.13;;;;;;;19.68;57.92;98676.56;5053612;28;20509;-74
2024/04/01 11:02:24;;;;;;;2.70;0.70;;;;;;;19.67;57.24;98691.50;5052742;28;20923;-74
2024/04/01 11:05:22;;;;;;;3.00;1.00;;;;;;;19.68;55.89;98671.06;5055888;28;20442;-74
2024/04/01 11:08:12;;;;;;;3.23;0.90;;;;;;;19.72;55.36;98687.53;5055300;28;20985;-74
2024/04/01 11:10:39;;;;;;;2.43;0.80;;;;;;;19.65;54.95;98699.34;5055522;28;20506;-74
2024/04/01 11:13:12;;;;;;;3.13;0.80;;;;;;;19.68;54.76;98679.31;5043074;28;21032;-74
2024/04/01 11:15:39;;;;;;;3.10;1.20;;;;;;;19.76;55.80;98678.06;5047398;28;20427;-74
2024/04/01 11:18:28;;;;;;;4.67;1.00;;;;;;;19.92;54.08;98680.22;5055148;28;20481;-74
2024/04/01 11:20:59;;;;;;;2.77;0.87;;;;;;;19.95;52.43;98717.88;5054196;28;20835;-74
2024/04/01 11:23:46;;;;;;;2.40;0.63;;;;;;;20.11;53.26;98703.56;5055725;28;20472;-74
2024/04/01 11:26:33;;;;;;;3.73;0.63;;;;;;;20.20;52.16;98711.31;5055176;28;20890;-74
2024/04/01 11:29:13;;;;;;;2.50;0.50;;;;;;;20.34;51.68;98697.38;5055022;28;20482;-74
2024/04/01 11:31:54;;;;;;;2.30;0.60;;;;;;;20.49;50.59;98707.00;5053398;28;20978;-75
2024/04/01 11:34:31;;;;;;;2.90;0.80;;;;;;;20.57;52.12;98699.44;5047337;28;20431;-74
2024/04/01 11:37:12;;;;;;;2.80;0.70;;;;;;;20.63;49.95;98684.81;5054733;28;20506;-74
2024/04/01 11:39:45;;;;;;;3.00;0.90;;;;;;;20.80;50.09;98690.47;5055157;28;20430;-73